createdAt,value
2019-05-02T00:01:13.805Z,44.40
2019-05-02T00:03:41.311Z,44.60
2019-05-02T00:06:09.347Z,44.80
2019-05-02T00:08:35.741Z,45.00
2019-05-02T00:11:02.059Z,45.30
2019-05-02T00:13:28.336Z,45.30
2019-05-02T00:15:54.563Z,45.30
2019-05-02T00:18:21.427Z,45.10
2019-05-02T00:20:47.448Z,45.00
2019-05-02T00:23:13.843Z,45.40
2019-05-02T00:25:39.895Z,45.50
2019-05-02T00:28:07.830Z,45.40
2019-05-02T00:30:34.709Z,45.50
2019-05-02T00:33:01.996Z,45.70
2019-05-02T00:35:28.003Z,45.60
2019-05-02T00:37:57.410Z,46.20
2019-05-02T00:40:25.611Z,46.70
2019-05-02T00:42:53.208Z,47.50
2019-05-02T00:45:18.724Z,47.60
2019-05-02T00:47:50.740Z,48.10
2019-05-02T00:50:17.446Z,48.30
2019-05-02T00:52:43.583Z,48.30
2019-05-02T00:55:12.547Z,48.60
2019-05-02T00:57:38.835Z,49.80
2019-05-02T01:00:05.170Z,49.80
2019-05-02T01:02:35.919Z,51.00
2019-05-02T01:05:03.285Z,51.00
2019-05-02T01:07:28.947Z,51.60
2019-05-02T01:09:54.971Z,52.20
2019-05-02T01:12:26.556Z,53.20
2019-05-02T01:14:49.937Z,54.30
2019-05-02T01:17:16.123Z,54.40
2019-05-02T01:19:42.142Z,54.90
2019-05-02T01:22:10.700Z,55.10
2019-05-02T01:24:39.606Z,55.30
2019-05-02T01:27:06.623Z,55.70
2019-05-02T01:29:40.498Z,55.90
2019-05-02T01:32:17.766Z,56.00
2019-05-02T01:34:54.573Z,55.60
2019-05-02T01:37:22.049Z,55.80
2019-05-02T01:39:48.543Z,55.80
2019-05-02T01:42:14.590Z,56.10
2019-05-02T01:44:40.620Z,56.50
2019-05-02T01:47:06.651Z,55.50
2019-05-02T01:49:32.685Z,55.00
2019-05-02T01:51:58.686Z,55.00
2019-05-02T01:54:24.727Z,55.10
2019-05-02T01:56:50.807Z,55.00
2019-05-02T01:59:16.847Z,54.60
2019-05-02T02:01:42.877Z,54.80
2019-05-02T02:04:08.975Z,54.90
2019-05-02T02:06:38.777Z,55.00
2019-05-02T02:09:08.374Z,55.80
2019-05-02T02:11:33.882Z,55.10
2019-05-02T02:14:00.575Z,55.40
2019-05-02T02:16:26.625Z,55.50
2019-05-02T02:18:59.013Z,55.50
2019-05-02T02:21:30.391Z,55.40
2019-05-02T02:24:01.331Z,55.60
2019-05-02T02:26:27.443Z,55.70
2019-05-02T02:28:53.527Z,56.20
2019-05-02T02:31:20.239Z,55.50
2019-05-02T02:33:49.811Z,55.60
2019-05-02T02:36:14.195Z,55.60
2019-05-02T02:38:40.230Z,55.50
2019-05-02T02:41:12.524Z,55.50
2019-05-02T02:43:35.081Z,55.50
2019-05-02T02:46:09.155Z,55.90
2019-05-02T02:48:40.637Z,56.10
2019-05-02T02:51:03.381Z,56.40
2019-05-02T02:53:29.459Z,56.50
2019-05-02T02:56:02.082Z,56.60
2019-05-02T02:58:24.876Z,56.40
2019-05-02T03:00:50.904Z,56.60
2019-05-02T03:03:20.991Z,56.60
2019-05-02T03:05:45.187Z,57.10
2019-05-02T03:08:11.676Z,56.50
2019-05-02T03:10:40.044Z,56.80
2019-05-02T03:13:15.149Z,56.40
2019-05-02T03:15:42.739Z,56.40
2019-05-02T03:18:08.856Z,56.20
2019-05-02T03:20:40.661Z,56.90
2019-05-02T03:23:03.219Z,56.20
2019-05-02T03:25:49.300Z,56.00
2019-05-02T03:27:57.406Z,55.30
2019-05-02T03:30:33.063Z,56.10
2019-05-02T03:33:04.686Z,56.30
2019-05-02T03:35:29.633Z,56.40
2019-05-02T03:37:51.393Z,56.40
2019-05-02T03:40:15.408Z,56.60
2019-05-02T03:42:44.662Z,56.80
2019-05-02T03:45:09.448Z,56.50
2019-05-02T03:47:36.954Z,56.70
2019-05-02T03:50:08.265Z,56.50
2019-05-02T03:52:36.831Z,55.40
2019-05-02T03:55:00.920Z,54.80
2019-05-02T03:57:33.342Z,54.70
2019-05-02T03:59:54.916Z,54.90
2019-05-02T04:02:21.846Z,54.90
2019-05-02T04:04:54.399Z,55.00
2019-05-02T04:07:16.395Z,54.90
2019-05-02T04:09:42.782Z,54.80
2019-05-02T04:12:18.672Z,54.90
2019-05-02T04:14:38.598Z,54.90
2019-05-02T04:17:04.893Z,55.00
2019-05-02T04:19:34.753Z,54.70
2019-05-02T04:22:01.742Z,54.60
2019-05-02T04:24:28.491Z,54.70
2019-05-02T04:26:56.352Z,54.50
2019-05-02T04:29:24.543Z,54.40
2019-05-02T04:31:50.877Z,54.40
2019-05-02T04:34:17.925Z,54.20
2019-05-02T04:36:46.781Z,54.20
2019-05-02T04:39:17.753Z,54.50
2019-05-02T04:41:42.467Z,54.70
2019-05-02T04:44:09.061Z,53.50
2019-05-02T04:46:35.387Z,53.20
2019-05-02T04:49:01.389Z,53.40
2019-05-02T04:51:31.505Z,52.60
2019-05-02T04:53:58.559Z,52.50
2019-05-02T04:56:23.316Z,52.30
2019-05-02T04:58:49.782Z,52.30
2019-05-02T05:01:16.219Z,52.50
2019-05-02T05:03:42.471Z,52.50
2019-05-02T05:06:12.300Z,52.40
2019-05-02T05:08:38.877Z,52.40
2019-05-02T05:11:04.471Z,52.40
2019-05-02T05:13:31.039Z,51.90
2019-05-02T05:15:57.422Z,52.30
2019-05-02T05:18:23.600Z,52.40
2019-05-02T05:20:53.233Z,52.30
2019-05-02T05:23:21.556Z,52.50
2019-05-02T05:25:50.771Z,52.40
2019-05-02T05:28:19.798Z,51.80
2019-05-02T05:31:07.531Z,51.70
2019-05-02T05:33:33.171Z,51.10
2019-05-02T05:35:59.193Z,51.10
2019-05-02T05:38:28.539Z,51.40
2019-05-02T05:40:53.235Z,51.20
2019-05-02T05:43:20.604Z,51.10
2019-05-02T05:45:53.591Z,51.00
2019-05-02T05:48:15.415Z,50.20
2019-05-02T05:50:41.625Z,50.30
2019-05-02T05:53:08.063Z,49.10
2019-05-02T05:55:34.224Z,48.90
2019-05-02T05:58:09.098Z,48.60
2019-05-02T06:00:28.261Z,48.40
2019-05-02T06:03:01.218Z,48.10
2019-05-02T06:05:22.791Z,47.70
2019-05-02T06:07:48.810Z,47.00
2019-05-02T06:10:14.846Z,46.80
2019-05-02T06:12:40.863Z,47.00
2019-05-02T06:15:06.916Z,47.20
2019-05-02T06:17:33.358Z,46.90
2019-05-02T06:19:59.463Z,46.70
2019-05-02T06:22:25.728Z,47.10
2019-05-02T06:24:52.188Z,47.70
2019-05-02T06:27:20.801Z,47.20
2019-05-02T06:29:46.211Z,47.20
2019-05-02T06:32:14.088Z,47.00
2019-05-02T06:34:46.328Z,46.90
2019-05-02T06:37:13.416Z,46.80
2019-05-02T06:39:36.784Z,46.70
2019-05-02T06:42:04.712Z,46.70
2019-05-02T06:44:30.750Z,46.70
2019-05-02T06:46:59.206Z,46.80
2019-05-02T06:49:26.022Z,46.40
2019-05-02T06:51:56.253Z,45.90
2019-05-02T06:54:22.922Z,45.00
2019-05-02T06:56:49.214Z,44.90
2019-05-02T06:59:18.410Z,45.60
2019-05-02T07:01:43.935Z,45.90
2019-05-02T07:04:09.952Z,46.40
2019-05-02T07:06:56.065Z,46.80
2019-05-02T07:09:05.092Z,47.10
2019-05-02T07:11:33.449Z,47.40
2019-05-02T07:14:12.127Z,47.20
2019-05-02T07:16:38.067Z,46.90
2019-05-02T07:18:58.979Z,46.00
2019-05-02T07:21:25.003Z,46.30
2019-05-02T07:23:53.830Z,46.60
2019-05-02T07:26:21.107Z,46.00
2019-05-02T07:28:47.586Z,45.40
2019-05-02T07:31:17.655Z,45.30
2019-05-02T07:33:43.787Z,45.30
2019-05-02T07:36:09.818Z,46.10
2019-05-02T07:38:35.949Z,46.80
2019-05-02T07:41:04.971Z,47.40
2019-05-02T07:43:33.955Z,47.90
2019-05-02T07:46:03.322Z,47.90
2019-05-02T07:48:29.351Z,47.80
2019-05-02T07:50:55.780Z,48.10
2019-05-02T07:53:22.739Z,48.70
2019-05-02T07:55:49.278Z,48.60
2019-05-02T07:58:15.472Z,48.40
2019-05-02T08:00:41.595Z,48.00
2019-05-02T08:03:07.615Z,48.10
2019-05-02T08:05:33.951Z,48.10
2019-05-02T08:08:00.110Z,47.90
2019-05-02T08:10:26.258Z,48.30
2019-05-02T08:12:52.275Z,49.40
2019-05-02T08:15:18.307Z,49.90
2019-05-02T08:17:51.460Z,50.30
2019-05-02T08:20:13.699Z,50.60
2019-05-02T08:22:44.048Z,50.80
2019-05-02T08:25:10.549Z,51.00
2019-05-02T08:27:44.922Z,51.30
2019-05-02T08:30:12.844Z,52.00
2019-05-02T08:32:38.903Z,52.30
2019-05-02T08:35:05.332Z,52.30
2019-05-02T08:37:35.423Z,52.70
2019-05-02T08:39:59.326Z,52.70
2019-05-02T08:42:27.653Z,52.70
2019-05-02T08:44:56.312Z,53.20
2019-05-02T08:47:23.875Z,54.20
2019-05-02T08:49:54.849Z,54.50
2019-05-02T08:52:20.297Z,55.30
2019-05-02T08:54:46.332Z,55.80
2019-05-02T08:57:15.906Z,55.70
2019-05-02T08:59:42.219Z,56.20
2019-05-02T09:02:08.236Z,56.90
2019-05-02T09:04:34.649Z,57.40
2019-05-02T09:07:00.923Z,57.80
2019-05-02T09:09:28.026Z,56.80
2019-05-02T09:12:09.766Z,57.70
2019-05-02T09:14:27.593Z,56.90
2019-05-02T09:16:53.641Z,57.50
2019-05-02T09:19:21.451Z,57.60
2019-05-02T09:21:47.683Z,58.30
2019-05-02T09:24:20.937Z,58.50
2019-05-02T09:26:42.608Z,57.80
2019-05-02T09:29:09.331Z,58.10
2019-05-02T09:31:42.241Z,57.80
2019-05-02T09:34:06.567Z,57.70
2019-05-02T09:36:32.676Z,57.90
2019-05-02T09:38:58.688Z,57.70
2019-05-02T09:41:26.832Z,58.00
2019-05-02T09:43:53.043Z,57.70
2019-05-02T09:46:19.146Z,57.60
2019-05-02T09:48:45.152Z,57.50
2019-05-02T09:51:16.737Z,57.70
2019-05-02T09:53:39.119Z,57.60
2019-05-02T09:56:05.154Z,57.30
2019-05-02T09:58:32.038Z,57.30
2019-05-02T10:01:05.957Z,57.10
2019-05-02T10:03:32.449Z,57.20
2019-05-02T10:05:58.484Z,56.50
2019-05-02T10:08:24.487Z,56.30
2019-05-02T10:10:52.170Z,55.50
2019-05-02T10:13:18.364Z,55.60
2019-05-02T10:15:44.572Z,56.50
2019-05-02T10:18:13.704Z,56.70
2019-05-02T10:20:38.639Z,56.70
2019-05-02T10:23:04.651Z,56.30
2019-05-02T10:25:38.314Z,56.10
2019-05-02T10:27:58.655Z,56.40
2019-05-02T10:30:28.260Z,55.80
2019-05-02T10:32:57.226Z,55.60
2019-05-02T10:35:28.121Z,55.80
2019-05-02T10:37:52.281Z,55.90
2019-05-02T10:40:18.353Z,55.50
2019-05-02T10:42:46.339Z,54.70
2019-05-02T10:45:16.610Z,54.10
2019-05-02T10:47:42.248Z,53.70
2019-05-02T10:50:11.671Z,53.60
2019-05-02T10:52:37.824Z,52.70
2019-05-02T10:55:05.086Z,52.90
2019-05-02T10:57:32.621Z,53.40
2019-05-02T10:59:58.856Z,52.60
2019-05-02T11:02:26.932Z,52.70
2019-05-02T11:05:02.625Z,52.70
2019-05-02T11:07:28.622Z,52.80
2019-05-02T11:09:57.409Z,52.80
2019-05-02T11:12:43.401Z,51.70
2019-05-02T11:15:05.647Z,51.50
2019-05-02T11:17:36.501Z,52.00
2019-05-02T11:20:06.634Z,52.20
2019-05-02T11:22:32.643Z,52.30
2019-05-02T11:24:58.682Z,52.10
2019-05-02T11:27:28.096Z,52.00
2019-05-02T11:29:55.311Z,52.00
2019-05-02T11:32:22.131Z,51.50
2019-05-02T11:34:48.414Z,50.70
2019-05-02T11:37:14.483Z,50.60
2019-05-02T11:39:46.648Z,50.50
2019-05-02T11:42:08.797Z,50.60
2019-05-02T11:44:34.815Z,50.70
2019-05-02T11:47:01.969Z,50.30
2019-05-02T11:49:31.991Z,49.80
2019-05-02T11:52:04.668Z,49.60
2019-05-02T11:54:34.213Z,50.10
2019-05-02T11:57:02.109Z,49.90
2019-05-02T11:59:29.288Z,50.70
2019-05-02T12:02:03.083Z,50.80
2019-05-02T12:04:29.236Z,50.40
2019-05-02T12:07:01.111Z,49.60
2019-05-02T12:09:23.385Z,48.10
2019-05-02T12:11:55.029Z,46.60
2019-05-02T12:14:17.354Z,45.50
2019-05-02T12:16:52.754Z,44.70
2019-05-02T12:19:15.072Z,45.10
2019-05-02T12:21:44.799Z,45.50
2019-05-02T12:24:12.647Z,46.00
2019-05-02T12:26:38.780Z,46.70
2019-05-02T12:29:04.889Z,47.60
2019-05-02T12:31:42.682Z,47.00
2019-05-02T12:34:11.651Z,46.90
2019-05-02T12:36:37.901Z,46.40
2019-05-02T12:39:04.492Z,45.20
2019-05-02T12:41:32.881Z,45.40
2019-05-02T12:43:58.815Z,45.50
2019-05-02T12:46:24.823Z,45.00
2019-05-02T12:48:52.003Z,45.80
2019-05-02T12:51:33.167Z,46.40
2019-05-02T12:53:59.167Z,46.50
2019-05-02T12:56:25.183Z,46.80
2019-05-02T12:58:52.924Z,46.40
2019-05-02T13:01:24.655Z,45.80
2019-05-02T13:03:52.660Z,45.50
2019-05-02T13:06:18.711Z,44.50
2019-05-02T13:08:48.103Z,44.10
2019-05-02T13:11:24.583Z,44.40
2019-05-02T13:13:59.612Z,44.90
2019-05-02T13:16:25.747Z,45.60
2019-05-02T13:18:51.990Z,46.60
2019-05-02T13:21:21.602Z,46.30
2019-05-02T13:23:56.300Z,46.10
2019-05-02T13:26:27.229Z,45.30
2019-05-02T13:28:55.177Z,45.50
2019-05-02T13:31:28.915Z,45.90
2019-05-02T13:34:01.706Z,45.90
2019-05-02T13:36:38.053Z,46.40
2019-05-02T13:39:07.036Z,46.40
2019-05-02T13:41:33.065Z,46.70
2019-05-02T13:43:59.269Z,47.20
2019-05-02T13:46:26.806Z,46.70
2019-05-02T13:48:53.124Z,46.50
2019-05-02T13:51:19.255Z,46.30
2019-05-02T13:53:53.270Z,46.50
2019-05-02T13:56:21.958Z,45.80
2019-05-02T13:58:48.307Z,45.10
2019-05-02T14:01:14.825Z,44.40
2019-05-02T14:03:42.096Z,43.20
2019-05-02T14:06:08.285Z,42.60
2019-05-02T14:08:45.371Z,42.00
2019-05-02T14:11:35.373Z,41.60
2019-05-02T14:14:01.958Z,41.10
2019-05-02T14:16:28.154Z,40.40
2019-05-02T14:18:54.184Z,40.20
2019-05-02T14:21:22.393Z,39.40
2019-05-02T14:23:48.624Z,40.00
2019-05-02T14:26:27.562Z,40.60
2019-05-02T14:28:43.338Z,41.10
2019-05-02T14:31:09.595Z,41.10
2019-05-02T14:33:37.857Z,40.90
2019-05-02T14:36:04.108Z,40.20
2019-05-02T14:38:32.157Z,38.20
2019-05-02T14:41:00.355Z,37.00
2019-05-02T14:43:48.050Z,36.70
2019-05-02T14:46:12.738Z,38.50
2019-05-02T14:48:43.699Z,39.30
2019-05-02T14:51:07.267Z,40.00
2019-05-02T14:53:33.572Z,39.50
2019-05-02T14:56:04.459Z,39.50
2019-05-02T14:58:29.477Z,40.40
2019-05-02T15:00:56.183Z,39.20
2019-05-02T15:03:24.571Z,39.70
2019-05-02T15:05:50.173Z,40.00
2019-05-02T15:08:16.210Z,40.70
2019-05-02T15:10:50.804Z,38.30
2019-05-02T15:13:12.474Z,36.00
2019-05-02T15:15:43.486Z,34.10
2019-05-02T15:18:13.472Z,33.20
2019-05-02T15:20:39.491Z,33.70
2019-05-02T15:23:07.219Z,34.30
2019-05-02T15:25:33.621Z,33.60
2019-05-02T15:28:03.183Z,32.50
2019-05-02T15:30:29.278Z,32.30
2019-05-02T15:32:57.199Z,32.90
2019-05-02T15:35:45.002Z,34.70
2019-05-02T15:38:24.582Z,35.90
2019-05-02T15:40:50.651Z,36.30
2019-05-02T15:43:15.135Z,36.90
2019-05-02T15:45:44.168Z,35.30
2019-05-02T15:48:14.672Z,32.60
2019-05-02T15:50:48.797Z,31.70
2019-05-02T15:53:12.471Z,32.30
2019-05-02T15:55:43.592Z,33.40
2019-05-02T15:58:16.890Z,35.00
2019-05-02T16:00:43.606Z,36.60
2019-05-02T16:03:19.832Z,38.30
2019-05-02T16:05:47.388Z,43.60
2019-05-02T16:08:25.955Z,47.10
2019-05-02T16:11:08.734Z,49.00
2019-05-02T16:13:47.008Z,52.50
2019-05-02T16:16:18.393Z,54.60
2019-05-02T16:18:52.633Z,53.60
2019-05-02T16:21:52.006Z,53.60
2019-05-02T16:24:23.600Z,55.40
2019-05-02T16:26:53.236Z,54.10
2019-05-02T16:29:29.109Z,54.70
2019-05-02T16:32:01.280Z,56.70
2019-05-02T16:34:33.894Z,55.10
2019-05-02T16:37:13.612Z,54.20
2019-05-02T16:39:37.256Z,52.10
2019-05-02T16:42:04.786Z,53.10
2019-05-02T16:44:32.223Z,54.30
2019-05-02T16:46:58.334Z,54.50
2019-05-02T16:49:24.635Z,53.60
2019-05-02T16:51:52.841Z,54.20
2019-05-02T16:54:18.678Z,55.60
2019-05-02T16:56:46.049Z,56.30
2019-05-02T16:59:12.753Z,56.00
2019-05-02T17:01:38.771Z,54.70
2019-05-02T17:04:08.459Z,55.40
2019-05-02T17:06:36.430Z,54.60
2019-05-02T17:09:21.710Z,54.10
2019-05-02T17:11:47.963Z,53.60
2019-05-02T17:14:13.991Z,53.30
2019-05-02T17:16:42.022Z,53.40
2019-05-02T17:19:08.282Z,52.50
2019-05-02T17:21:52.463Z,51.10
2019-05-02T17:24:08.027Z,51.60
2019-05-02T17:26:36.574Z,51.60
2019-05-02T17:29:08.363Z,53.40
2019-05-02T17:31:36.111Z,52.00
2019-05-02T17:34:05.923Z,52.40
2019-05-02T17:36:42.794Z,52.30
2019-05-02T17:39:14.388Z,53.00
2019-05-02T17:41:45.667Z,52.90
2019-05-02T17:44:22.184Z,52.90
2019-05-02T17:46:50.871Z,53.20
2019-05-02T17:49:17.196Z,52.90
2019-05-02T17:52:19.807Z,53.40
2019-05-02T17:54:43.536Z,52.30
2019-05-02T17:57:33.441Z,52.90
2019-05-02T18:00:07.496Z,52.80
2019-05-02T18:02:47.010Z,53.00
2019-05-02T18:05:18.317Z,52.90
2019-05-02T18:07:58.275Z,52.20
2019-05-02T18:10:35.790Z,52.50
2019-05-02T18:13:13.087Z,52.80
2019-05-02T18:15:48.039Z,52.80
2019-05-02T18:18:25.020Z,53.30
2019-05-02T18:20:52.889Z,53.10
2019-05-02T18:23:25.873Z,53.30
2019-05-02T18:25:57.321Z,53.40
2019-05-02T18:28:28.884Z,53.80
2019-05-02T18:31:02.784Z,52.50
2019-05-02T18:33:26.875Z,51.90
2019-05-02T18:35:54.884Z,51.80
2019-05-02T18:38:22.368Z,51.50
2019-05-02T18:40:52.121Z,49.70
2019-05-02T18:43:19.496Z,49.10
2019-05-02T18:45:48.148Z,49.60
2019-05-02T18:48:16.808Z,49.40
2019-05-02T18:50:46.890Z,50.60
2019-05-02T18:53:10.751Z,51.50
2019-05-02T18:55:39.449Z,49.60
2019-05-02T18:58:05.724Z,49.00
2019-05-02T19:00:37.546Z,48.80
2019-05-02T19:02:59.659Z,49.00
2019-05-02T19:05:26.596Z,49.20
2019-05-02T19:07:56.413Z,49.50
2019-05-02T19:10:20.659Z,49.30
2019-05-02T19:12:46.683Z,49.70
2019-05-02T19:15:12.771Z,50.60
2019-05-02T19:17:40.369Z,50.60
2019-05-02T19:20:22.747Z,49.70
2019-05-02T19:22:52.875Z,49.60
2019-05-02T19:25:16.696Z,49.80
2019-05-02T19:27:52.051Z,50.00
2019-05-02T19:30:24.541Z,49.70
2019-05-02T19:32:49.071Z,48.50
2019-05-02T19:35:15.547Z,48.80
2019-05-02T19:37:44.574Z,48.10
2019-05-02T19:40:12.544Z,47.90
2019-05-02T19:42:39.095Z,47.90
2019-05-02T19:45:11.584Z,47.00
2019-05-02T19:47:33.716Z,46.50
2019-05-02T19:49:59.841Z,46.80
2019-05-02T19:52:28.613Z,46.70
2019-05-02T19:54:55.730Z,47.40
2019-05-02T19:57:26.153Z,46.20
2019-05-02T19:59:49.902Z,45.50
2019-05-02T20:02:15.905Z,47.10
2019-05-02T20:04:42.691Z,47.70
2019-05-02T20:07:10.588Z,46.50
2019-05-02T20:09:42.537Z,45.10
2019-05-02T20:12:13.417Z,45.00
2019-05-02T20:14:38.235Z,46.10
2019-05-02T20:17:24.135Z,46.10
2019-05-02T20:19:57.745Z,45.70
2019-05-02T20:22:22.590Z,45.40
2019-05-02T20:25:00.091Z,45.90
2019-05-02T20:27:28.233Z,45.40
2019-05-02T20:30:02.902Z,44.20
2019-05-02T20:32:29.164Z,44.40
2019-05-02T20:34:58.504Z,44.40
2019-05-02T20:37:24.685Z,45.90
2019-05-02T20:39:58.577Z,45.60
2019-05-02T20:42:34.201Z,45.70
2019-05-02T20:45:05.481Z,46.80
2019-05-02T20:47:42.712Z,45.40
2019-05-02T20:50:08.977Z,46.30
2019-05-02T20:52:52.897Z,46.30
2019-05-02T20:55:24.763Z,46.50
2019-05-02T20:57:55.462Z,45.30
2019-05-02T21:00:32.046Z,46.50
2019-05-02T21:02:58.715Z,44.80
2019-05-02T21:05:29.703Z,44.30
2019-05-02T21:08:14.422Z,45.20
2019-05-02T21:10:44.875Z,45.80
2019-05-02T21:13:12.561Z,45.00
2019-05-02T21:15:38.804Z,44.70
2019-05-02T21:18:04.814Z,44.00
2019-05-02T21:20:32.545Z,44.80
2019-05-02T21:22:58.788Z,45.60
2019-05-02T21:25:24.843Z,44.80
2019-05-02T21:27:52.361Z,44.20
2019-05-02T21:30:23.489Z,44.10
2019-05-02T21:32:49.507Z,44.30
2019-05-02T21:35:17.513Z,45.30
2019-05-02T21:37:43.649Z,44.30
2019-05-02T21:40:11.706Z,44.40
2019-05-02T21:42:37.716Z,44.40
2019-05-02T21:45:05.279Z,44.30
2019-05-02T21:47:32.437Z,44.60
2019-05-02T21:50:01.837Z,45.10
2019-05-02T21:52:39.459Z,44.30
2019-05-02T21:55:07.481Z,45.00
2019-05-02T21:57:33.789Z,44.70
2019-05-02T22:00:02.306Z,44.80
2019-05-02T22:02:28.171Z,44.80
2019-05-02T22:04:54.181Z,44.40
2019-05-02T22:07:21.788Z,44.40
2019-05-02T22:09:47.992Z,45.20
2019-05-02T22:12:14.007Z,45.00
2019-05-02T22:14:42.018Z,44.40
2019-05-02T22:17:07.964Z,44.50
2019-05-02T22:19:33.995Z,44.50
2019-05-02T22:22:01.615Z,44.50
2019-05-02T22:24:27.795Z,45.00
2019-05-02T22:26:54.075Z,44.40
2019-05-02T22:29:21.860Z,43.60
2019-05-02T22:31:48.063Z,43.40
2019-05-02T22:34:14.075Z,43.90
2019-05-02T22:36:41.356Z,44.10
2019-05-02T22:39:15.372Z,43.80
2019-05-02T22:41:42.004Z,43.40
2019-05-02T22:44:08.450Z,43.20
2019-05-02T22:46:43.785Z,43.80
2019-05-02T22:49:11.890Z,43.60
2019-05-02T22:51:38.683Z,43.10
2019-05-02T22:54:05.668Z,43.70
2019-05-02T22:56:31.793Z,43.80
2019-05-02T22:58:57.919Z,43.90
2019-05-02T23:01:23.963Z,43.70
2019-05-02T23:03:52.367Z,43.50
2019-05-02T23:06:21.320Z,43.50
2019-05-02T23:08:47.330Z,43.70
2019-05-02T23:11:13.720Z,44.40
2019-05-02T23:13:40.039Z,43.00
2019-05-02T23:16:06.056Z,43.40
2019-05-02T23:18:32.079Z,43.50
2019-05-02T23:20:58.096Z,43.10
2019-05-02T23:23:24.326Z,42.70
2019-05-02T23:26:04.378Z,42.10
2019-05-02T23:28:32.311Z,42.10
2019-05-02T23:30:58.338Z,41.70
2019-05-02T23:33:26.263Z,41.70
2019-05-02T23:35:52.275Z,41.10
2019-05-02T23:38:18.350Z,42.10
2019-05-02T23:40:44.395Z,41.50
2019-05-02T23:43:12.390Z,41.50
2019-05-02T23:45:38.648Z,41.30
2019-05-02T23:48:04.787Z,41.50
2019-05-02T23:50:30.799Z,41.70
2019-05-02T23:52:56.811Z,41.50
2019-05-02T23:55:23.852Z,41.20
2019-05-02T23:57:49.864Z,41.10
